sensor_id;sensor_type;location;lat;lon;timestamp;temperature;humidity
21481;DHT22;10902;48.158;8.634;2024-03-22T00:02:26;5.90;99.90
21481;DHT22;10902;48.158;8.634;2024-03-22T00:05:12;5.90;99.90
21481;DHT22;10902;48.158;8.634;2024-03-22T00:07:58;5.90;99.90
21481;DHT22;10902;48.158;8.634;2024-03-22T00:10:43;6.00;99.90
21481;DHT22;10902;48.158;8.634;2024-03-22T00:13:29;6.00;99.90
21481;DHT22;10902;48.158;8.634;2024-03-22T00:16:14;6.00;99.90
21481;DHT22;10902;48.158;8.634;2024-03-22T00:19:00;6.30;99.90
21481;DHT22;10902;48.158;8.634;2024-03-22T00:21:46;6.30;99.90
21481;DHT22;10902;48.158;8.634;2024-03-22T00:24:31;6.20;99.90
21481;DHT22;10902;48.158;8.634;2024-03-22T00:27:17;6.20;99.90
21481;DHT22;10902;48.158;8.634;2024-03-22T00:30:03;6.20;99.90
21481;DHT22;10902;48.158;8.634;2024-03-22T00:32:49;6.00;99.90
21481;DHT22;10902;48.158;8.634;2024-03-22T00:35:35;6.00;99.90
21481;DHT22;10902;48.158;8.634;2024-03-22T00:38:20;5.90;99.90
21481;DHT22;10902;48.158;8.634;2024-03-22T00:41:06;5.80;99.90
21481;DHT22;10902;48.158;8.634;2024-03-22T00:43:52;5.70;99.90
21481;DHT22;10902;48.158;8.634;2024-03-22T00:46:37;5.80;99.90
21481;DHT22;10902;48.158;8.634;2024-03-22T00:49:23;5.80;99.90
21481;DHT22;10902;48.158;8.634;2024-03-22T00:52:09;5.70;99.90
21481;DHT22;10902;48.158;8.634;2024-03-22T00:54:54;5.60;99.90
21481;DHT22;10902;48.158;8.634;2024-03-22T00:57:40;5.50;99.90
21481;DHT22;10902;48.158;8.634;2024-03-22T01:00:26;5.50;99.90
21481;DHT22;10902;48.158;8.634;2024-03-22T01:03:11;5.40;99.90
21481;DHT22;10902;48.158;8.634;2024-03-22T01:05:57;5.40;99.90
21481;DHT22;10902;48.158;8.634;2024-03-22T01:08:42;5.40;99.90
21481;DHT22;10902;48.158;8.634;2024-03-22T01:11:29;5.30;99.90
21481;DHT22;10902;48.158;8.634;2024-03-22T01:14:14;5.30;99.90
21481;DHT22;10902;48.158;8.634;2024-03-22T01:17:00;5.30;99.90
21481;DHT22;10902;48.158;8.634;2024-03-22T01:19:46;5.30;99.90
21481;DHT22;10902;48.158;8.634;2024-03-22T01:22:31;5.30;99.90
21481;DHT22;10902;48.158;8.634;2024-03-22T01:25:17;5.30;99.90
21481;DHT22;10902;48.158;8.634;2024-03-22T01:28:02;5.30;99.90
21481;DHT22;10902;48.158;8.634;2024-03-22T01:30:49;5.30;99.90
21481;DHT22;10902;48.158;8.634;2024-03-22T01:33:35;5.20;99.90
21481;DHT22;10902;48.158;8.634;2024-03-22T01:36:20;5.20;99.90
21481;DHT22;10902;48.158;8.634;2024-03-22T01:39:06;5.20;99.90
21481;DHT22;10902;48.158;8.634;2024-03-22T01:41:52;5.20;99.90
21481;DHT22;10902;48.158;8.634;2024-03-22T01:44:37;5.40;99.90
21481;DHT22;10902;48.158;8.634;2024-03-22T01:47:23;5.40;99.90
21481;DHT22;10902;48.158;8.634;2024-03-22T01:50:09;5.30;99.90
21481;DHT22;10902;48.158;8.634;2024-03-22T01:52:57;5.20;99.90
21481;DHT22;10902;48.158;8.634;2024-03-22T01:55:42;5.20;99.90
21481;DHT22;10902;48.158;8.634;2024-03-22T01:58:28;5.20;99.90
21481;DHT22;10902;48.158;8.634;2024-03-22T02:01:14;5.20;99.90
21481;DHT22;10902;48.158;8.634;2024-03-22T02:04:00;5.30;99.90
21481;DHT22;10902;48.158;8.634;2024-03-22T02:06:46;5.30;99.90
21481;DHT22;10902;48.158;8.634;2024-03-22T02:09:32;5.20;99.90
21481;DHT22;10902;48.158;8.634;2024-03-22T02:12:17;5.20;99.90
21481;DHT22;10902;48.158;8.634;2024-03-22T02:15:03;5.10;99.90
21481;DHT22;10902;48.158;8.634;2024-03-22T02:17:49;5.10;99.90
21481;DHT22;10902;48.158;8.634;2024-03-22T02:20:35;5.10;99.90
21481;DHT22;10902;48.158;8.634;2024-03-22T02:23:40;5.10;99.90
21481;DHT22;10902;48.158;8.634;2024-03-22T02:26:25;5.20;99.90
21481;DHT22;10902;48.158;8.634;2024-03-22T02:29:11;5.20;99.90
21481;DHT22;10902;48.158;8.634;2024-03-22T02:31:56;5.30;99.90
21481;DHT22;10902;48.158;8.634;2024-03-22T02:34:43;5.30;99.90
21481;DHT22;10902;48.158;8.634;2024-03-22T02:37:29;5.20;99.90
21481;DHT22;10902;48.158;8.634;2024-03-22T02:40:14;5.20;99.90
21481;DHT22;10902;48.158;8.634;2024-03-22T02:43:00;5.10;99.90
21481;DHT22;10902;48.158;8.634;2024-03-22T02:45:46;5.20;99.90
21481;DHT22;10902;48.158;8.634;2024-03-22T02:48:32;5.20;99.90
21481;DHT22;10902;48.158;8.634;2024-03-22T02:51:17;5.20;99.90
21481;DHT22;10902;48.158;8.634;2024-03-22T02:54:03;5.10;99.90
21481;DHT22;10902;48.158;8.634;2024-03-22T02:56:49;4.90;99.90
21481;DHT22;10902;48.158;8.634;2024-03-22T02:59:34;4.80;99.90
21481;DHT22;10902;48.158;8.634;2024-03-22T03:02:20;4.80;99.90
21481;DHT22;10902;48.158;8.634;2024-03-22T03:05:06;4.90;99.90
21481;DHT22;10902;48.158;8.634;2024-03-22T03:07:52;4.90;99.90
21481;DHT22;10902;48.158;8.634;2024-03-22T03:10:37;5.10;99.90
21481;DHT22;10902;48.158;8.634;2024-03-22T03:13:23;5.00;99.90
21481;DHT22;10902;48.158;8.634;2024-03-22T03:16:08;5.00;99.90
21481;DHT22;10902;48.158;8.634;2024-03-22T03:18:54;5.10;99.90
21481;DHT22;10902;48.158;8.634;2024-03-22T03:21:40;5.00;99.90
21481;DHT22;10902;48.158;8.634;2024-03-22T03:24:26;4.90;99.90
21481;DHT22;10902;48.158;8.634;2024-03-22T03:27:11;4.90;99.90
21481;DHT22;10902;48.158;8.634;2024-03-22T03:29:57;4.90;99.90
21481;DHT22;10902;48.158;8.634;2024-03-22T03:32:43;5.10;99.90
21481;DHT22;10902;48.158;8.634;2024-03-22T03:35:28;5.20;99.90
21481;DHT22;10902;48.158;8.634;2024-03-22T03:38:14;5.20;99.90
21481;DHT22;10902;48.158;8.634;2024-03-22T03:41:00;5.30;99.90
21481;DHT22;10902;48.158;8.634;2024-03-22T03:43:46;5.30;99.90
21481;DHT22;10902;48.158;8.634;2024-03-22T03:46:31;5.30;99.90
21481;DHT22;10902;48.158;8.634;2024-03-22T03:49:17;5.20;99.90
21481;DHT22;10902;48.158;8.634;2024-03-22T03:52:02;5.10;99.90
21481;DHT22;10902;48.158;8.634;2024-03-22T03:54:48;5.00;99.90
21481;DHT22;10902;48.158;8.634;2024-03-22T03:57:34;5.00;99.90
21481;DHT22;10902;48.158;8.634;2024-03-22T04:00:19;5.10;99.90
21481;DHT22;10902;48.158;8.634;2024-03-22T04:03:05;5.10;99.90
21481;DHT22;10902;48.158;8.634;2024-03-22T04:05:57;5.20;99.90
21481;DHT22;10902;48.158;8.634;2024-03-22T04:08:43;5.10;99.90
21481;DHT22;10902;48.158;8.634;2024-03-22T04:11:29;5.00;99.90
21481;DHT22;10902;48.158;8.634;2024-03-22T04:14:15;4.90;99.90
21481;DHT22;10902;48.158;8.634;2024-03-22T04:17:00;5.00;99.90
21481;DHT22;10902;48.158;8.634;2024-03-22T04:19:46;5.00;99.90
21481;DHT22;10902;48.158;8.634;2024-03-22T04:22:31;5.00;99.90
21481;DHT22;10902;48.158;8.634;2024-03-22T04:25:17;5.10;99.90
21481;DHT22;10902;48.158;8.634;2024-03-22T04:28:03;5.00;99.90
21481;DHT22;10902;48.158;8.634;2024-03-22T04:30:59;5.10;99.90
21481;DHT22;10902;48.158;8.634;2024-03-22T04:33:45;5.10;99.90
21481;DHT22;10902;48.158;8.634;2024-03-22T04:36:30;5.10;99.90
21481;DHT22;10902;48.158;8.634;2024-03-22T04:39:16;5.10;99.90
21481;DHT22;10902;48.158;8.634;2024-03-22T04:42:02;5.20;99.90
21481;DHT22;10902;48.158;8.634;2024-03-22T04:44:48;5.20;99.90
21481;DHT22;10902;48.158;8.634;2024-03-22T04:47:34;5.10;99.90
21481;DHT22;10902;48.158;8.634;2024-03-22T04:50:20;5.10;99.90
21481;DHT22;10902;48.158;8.634;2024-03-22T04:53:06;5.10;99.90
21481;DHT22;10902;48.158;8.634;2024-03-22T04:55:52;5.10;99.90
21481;DHT22;10902;48.158;8.634;2024-03-22T04:58:38;5.00;99.90
21481;DHT22;10902;48.158;8.634;2024-03-22T05:01:23;5.00;99.90
21481;DHT22;10902;48.158;8.634;2024-03-22T05:04:09;5.00;99.90
21481;DHT22;10902;48.158;8.634;2024-03-22T05:06:54;5.00;99.90
21481;DHT22;10902;48.158;8.634;2024-03-22T05:09:40;5.10;99.90
21481;DHT22;10902;48.158;8.634;2024-03-22T05:12:26;5.10;99.90
21481;DHT22;10902;48.158;8.634;2024-03-22T05:15:11;5.10;99.90
21481;DHT22;10902;48.158;8.634;2024-03-22T05:17:57;5.10;99.90
21481;DHT22;10902;48.158;8.634;2024-03-22T05:20:44;5.10;99.90
21481;DHT22;10902;48.158;8.634;2024-03-22T05:23:29;5.10;99.90
21481;DHT22;10902;48.158;8.634;2024-03-22T05:26:15;5.20;99.90
21481;DHT22;10902;48.158;8.634;2024-03-22T05:29:00;5.20;99.90
21481;DHT22;10902;48.158;8.634;2024-03-22T05:31:50;5.20;99.90
21481;DHT22;10902;48.158;8.634;2024-03-22T05:34:39;5.10;99.90
21481;DHT22;10902;48.158;8.634;2024-03-22T05:37:25;5.10;99.90
21481;DHT22;10902;48.158;8.634;2024-03-22T05:40:12;5.10;99.90
21481;DHT22;10902;48.158;8.634;2024-03-22T05:42:57;5.00;99.90
21481;DHT22;10902;48.158;8.634;2024-03-22T05:45:43;5.00;99.90
21481;DHT22;10902;48.158;8.634;2024-03-22T05:48:29;4.90;99.90
21481;DHT22;10902;48.158;8.634;2024-03-22T05:51:14;4.90;99.90
21481;DHT22;10902;48.158;8.634;2024-03-22T05:54:00;5.00;99.90
21481;DHT22;10902;48.158;8.634;2024-03-22T05:56:45;5.00;99.90
21481;DHT22;10902;48.158;8.634;2024-03-22T05:59:32;5.00;99.90
21481;DHT22;10902;48.158;8.634;2024-03-22T06:02:17;5.00;99.90
21481;DHT22;10902;48.158;8.634;2024-03-22T06:05:03;4.80;99.90
21481;DHT22;10902;48.158;8.634;2024-03-22T06:07:49;4.80;99.90
21481;DHT22;10902;48.158;8.634;2024-03-22T06:10:34;4.80;99.90
21481;DHT22;10902;48.158;8.634;2024-03-22T06:13:20;4.70;99.90
21481;DHT22;10902;48.158;8.634;2024-03-22T06:16:06;4.70;99.90
21481;DHT22;10902;48.158;8.634;2024-03-22T06:18:51;4.70;99.90
21481;DHT22;10902;48.158;8.634;2024-03-22T06:21:37;4.80;99.90
21481;DHT22;10902;48.158;8.634;2024-03-22T06:24:23;4.80;99.90
21481;DHT22;10902;48.158;8.634;2024-03-22T06:27:08;4.80;99.90
21481;DHT22;10902;48.158;8.634;2024-03-22T06:29:54;4.90;99.90
21481;DHT22;10902;48.158;8.634;2024-03-22T06:32:40;4.90;99.90
21481;DHT22;10902;48.158;8.634;2024-03-22T06:35:25;5.00;99.90
21481;DHT22;10902;48.158;8.634;2024-03-22T06:38:11;5.10;99.90
21481;DHT22;10902;48.158;8.634;2024-03-22T06:40:56;5.20;99.90
21481;DHT22;10902;48.158;8.634;2024-03-22T06:43:42;5.30;99.90
21481;DHT22;10902;48.158;8.634;2024-03-22T06:46:28;5.40;99.90
21481;DHT22;10902;48.158;8.634;2024-03-22T06:49:14;5.50;99.90
21481;DHT22;10902;48.158;8.634;2024-03-22T06:51:59;5.60;99.90
21481;DHT22;10902;48.158;8.634;2024-03-22T06:54:45;5.70;99.90
21481;DHT22;10902;48.158;8.634;2024-03-22T06:57:30;5.80;99.90
21481;DHT22;10902;48.158;8.634;2024-03-22T07:00:16;5.80;99.90
21481;DHT22;10902;48.158;8.634;2024-03-22T07:03:03;6.00;99.90
21481;DHT22;10902;48.158;8.634;2024-03-22T07:05:48;6.10;99.90
21481;DHT22;10902;48.158;8.634;2024-03-22T07:08:34;6.20;99.90
21481;DHT22;10902;48.158;8.634;2024-03-22T07:11:19;6.30;99.90
21481;DHT22;10902;48.158;8.634;2024-03-22T07:14:05;6.40;99.90
21481;DHT22;10902;48.158;8.634;2024-03-22T07:16:51;6.50;99.90
21481;DHT22;10902;48.158;8.634;2024-03-22T07:19:39;6.70;99.90
21481;DHT22;10902;48.158;8.634;2024-03-22T07:22:24;6.80;99.90
21481;DHT22;10902;48.158;8.634;2024-03-22T07:25:11;7.00;99.90
21481;DHT22;10902;48.158;8.634;2024-03-22T07:27:57;7.10;99.90
21481;DHT22;10902;48.158;8.634;2024-03-22T07:30:43;7.30;99.90
21481;DHT22;10902;48.158;8.634;2024-03-22T07:33:28;7.40;99.90
21481;DHT22;10902;48.158;8.634;2024-03-22T07:36:15;7.60;99.90
21481;DHT22;10902;48.158;8.634;2024-03-22T07:39:02;7.80;99.90
21481;DHT22;10902;48.158;8.634;2024-03-22T07:41:49;7.90;99.90
21481;DHT22;10902;48.158;8.634;2024-03-22T07:44:35;8.00;99.90
21481;DHT22;10902;48.158;8.634;2024-03-22T07:47:20;8.30;99.90
21481;DHT22;10902;48.158;8.634;2024-03-22T07:50:06;8.50;99.90
21481;DHT22;10902;48.158;8.634;2024-03-22T07:52:52;8.60;99.90
21481;DHT22;10902;48.158;8.634;2024-03-22T07:55:37;8.90;99.90
21481;DHT22;10902;48.158;8.634;2024-03-22T07:58:23;9.40;99.90
21481;DHT22;10902;48.158;8.634;2024-03-22T08:01:09;9.70;99.90
21481;DHT22;10902;48.158;8.634;2024-03-22T08:03:54;10.10;99.90
21481;DHT22;10902;48.158;8.634;2024-03-22T08:06:40;10.70;99.90
21481;DHT22;10902;48.158;8.634;2024-03-22T08:09:25;11.00;99.90
21481;DHT22;10902;48.158;8.634;2024-03-22T08:12:11;11.20;99.90
21481;DHT22;10902;48.158;8.634;2024-03-22T08:14:56;11.10;99.90
21481;DHT22;10902;48.158;8.634;2024-03-22T08:17:42;11.00;99.90
21481;DHT22;10902;48.158;8.634;2024-03-22T08:20:28;11.20;99.90
21481;DHT22;10902;48.158;8.634;2024-03-22T08:23:13;11.00;99.90
21481;DHT22;10902;48.158;8.634;2024-03-22T08:26:00;11.00;99.90
21481;DHT22;10902;48.158;8.634;2024-03-22T08:28:46;11.00;99.90
21481;DHT22;10902;48.158;8.634;2024-03-22T08:31:32;11.00;99.90
21481;DHT22;10902;48.158;8.634;2024-03-22T08:34:18;11.10;99.90
21481;DHT22;10902;48.158;8.634;2024-03-22T08:37:03;11.50;99.90
21481;DHT22;10902;48.158;8.634;2024-03-22T08:39:49;11.80;99.90
21481;DHT22;10902;48.158;8.634;2024-03-22T08:42:34;12.30;99.90
21481;DHT22;10902;48.158;8.634;2024-03-22T08:45:20;13.10;99.90
21481;DHT22;10902;48.158;8.634;2024-03-22T08:48:06;13.30;99.90
21481;DHT22;10902;48.158;8.634;2024-03-22T08:50:52;14.00;99.90
21481;DHT22;10902;48.158;8.634;2024-03-22T08:53:38;14.80;99.90
21481;DHT22;10902;48.158;8.634;2024-03-22T08:56:23;14.90;99.90
21481;DHT22;10902;48.158;8.634;2024-03-22T08:59:09;15.50;99.90
21481;DHT22;10902;48.158;8.634;2024-03-22T09:01:55;16.20;99.90
21481;DHT22;10902;48.158;8.634;2024-03-22T09:04:41;16.40;99.90
21481;DHT22;10902;48.158;8.634;2024-03-22T09:07:26;16.10;99.90
21481;DHT22;10902;48.158;8.634;2024-03-22T09:10:12;16.40;99.90
21481;DHT22;10902;48.158;8.634;2024-03-22T09:12:57;15.40;99.90
21481;DHT22;10902;48.158;8.634;2024-03-22T09:15:43;15.10;99.90
21481;DHT22;10902;48.158;8.634;2024-03-22T09:18:29;15.00;99.90
21481;DHT22;10902;48.158;8.634;2024-03-22T09:21:14;15.70;99.90
21481;DHT22;10902;48.158;8.634;2024-03-22T09:24:00;16.30;99.90
21481;DHT22;10902;48.158;8.634;2024-03-22T09:26:48;15.90;99.90
21481;DHT22;10902;48.158;8.634;2024-03-22T09:29:34;16.40;99.90
21481;DHT22;10902;48.158;8.634;2024-03-22T09:32:20;16.60;99.90
21481;DHT22;10902;48.158;8.634;2024-03-22T09:35:06;17.00;99.90
21481;DHT22;10902;48.158;8.634;2024-03-22T09:37:51;17.20;99.90
21481;DHT22;10902;48.158;8.634;2024-03-22T09:40:38;18.20;99.90
21481;DHT22;10902;48.158;8.634;2024-03-22T09:43:27;18.60;99.90
21481;DHT22;10902;48.158;8.634;2024-03-22T09:46:14;18.30;99.90
21481;DHT22;10902;48.158;8.634;2024-03-22T09:49:01;18.50;99.90
21481;DHT22;10902;48.158;8.634;2024-03-22T09:51:47;18.70;99.90
21481;DHT22;10902;48.158;8.634;2024-03-22T09:54:34;18.50;99.90
21481;DHT22;10902;48.158;8.634;2024-03-22T09:57:21;18.70;99.90
21481;DHT22;10902;48.158;8.634;2024-03-22T10:00:08;19.30;99.90
21481;DHT22;10902;48.158;8.634;2024-03-22T10:02:55;19.80;99.90
21481;DHT22;10902;48.158;8.634;2024-03-22T10:05:40;20.20;99.90
21481;DHT22;10902;48.158;8.634;2024-03-22T10:08:26;18.80;99.90
21481;DHT22;10902;48.158;8.634;2024-03-22T10:11:12;19.70;99.90
21481;DHT22;10902;48.158;8.634;2024-03-22T10:13:59;20.20;99.90
21481;DHT22;10902;48.158;8.634;2024-03-22T10:16:45;20.70;99.90
21481;DHT22;10902;48.158;8.634;2024-03-22T10:19:31;20.00;99.90
21481;DHT22;10902;48.158;8.634;2024-03-22T10:22:16;20.20;99.90
21481;DHT22;10902;48.158;8.634;2024-03-22T10:25:04;21.30;99.90
21481;DHT22;10902;48.158;8.634;2024-03-22T10:27:53;21.60;99.90
21481;DHT22;10902;48.158;8.634;2024-03-22T10:30:40;21.40;99.90
21481;DHT22;10902;48.158;8.634;2024-03-22T10:33:28;21.20;99.90
21481;DHT22;10902;48.158;8.634;2024-03-22T10:36:16;21.30;99.90
21481;DHT22;10902;48.158;8.634;2024-03-22T10:39:02;22.00;99.90
21481;DHT22;10902;48.158;8.634;2024-03-22T10:41:49;22.00;99.90
21481;DHT22;10902;48.158;8.634;2024-03-22T10:44:35;22.60;99.90
21481;DHT22;10902;48.158;8.634;2024-03-22T10:47:22;23.40;99.90
21481;DHT22;10902;48.158;8.634;2024-03-22T10:50:11;22.20;99.90
21481;DHT22;10902;48.158;8.634;2024-03-22T10:53:01;21.70;99.90
21481;DHT22;10902;48.158;8.634;2024-03-22T10:55:49;21.70;99.90
21481;DHT22;10902;48.158;8.634;2024-03-22T10:58:35;22.50;99.90
21481;DHT22;10902;48.158;8.634;2024-03-22T11:01:25;22.20;99.90
21481;DHT22;10902;48.158;8.634;2024-03-22T11:04:11;22.80;99.90
21481;DHT22;10902;48.158;8.634;2024-03-22T11:06:57;21.90;99.90
21481;DHT22;10902;48.158;8.634;2024-03-22T11:09:52;21.30;99.90
21481;DHT22;10902;48.158;8.634;2024-03-22T11:12:38;21.70;99.90
21481;DHT22;10902;48.158;8.634;2024-03-22T11:15:24;20.30;99.90
21481;DHT22;10902;48.158;8.634;2024-03-22T11:18:10;20.00;99.90
21481;DHT22;10902;48.158;8.634;2024-03-22T11:20:55;19.90;99.90
21481;DHT22;10902;48.158;8.634;2024-03-22T11:23:45;19.90;99.90
21481;DHT22;10902;48.158;8.634;2024-03-22T11:26:31;20.10;99.90
21481;DHT22;10902;48.158;8.634;2024-03-22T11:29:17;21.70;99.90
21481;DHT22;10902;48.158;8.634;2024-03-22T11:32:03;22.00;99.90
21481;DHT22;10902;48.158;8.634;2024-03-22T11:34:49;21.40;99.90
21481;DHT22;10902;48.158;8.634;2024-03-22T11:37:34;22.30;99.90
21481;DHT22;10902;48.158;8.634;2024-03-22T11:40:20;20.30;99.90
21481;DHT22;10902;48.158;8.634;2024-03-22T11:43:06;20.50;99.90
21481;DHT22;10902;48.158;8.634;2024-03-22T11:45:51;21.70;99.90
21481;DHT22;10902;48.158;8.634;2024-03-22T11:48:41;22.30;99.90
21481;DHT22;10902;48.158;8.634;2024-03-22T11:51:26;23.20;99.90
21481;DHT22;10902;48.158;8.634;2024-03-22T11:54:13;24.10;99.90
21481;DHT22;10902;48.158;8.634;2024-03-22T11:56:58;25.00;99.90
21481;DHT22;10902;48.158;8.634;2024-03-22T11:59:44;25.00;99.90
21481;DHT22;10902;48.158;8.634;2024-03-22T12:02:32;24.20;99.90
21481;DHT22;10902;48.158;8.634;2024-03-22T12:05:17;24.40;99.90
21481;DHT22;10902;48.158;8.634;2024-03-22T12:08:03;25.00;99.90
21481;DHT22;10902;48.158;8.634;2024-03-22T12:10:49;25.30;99.90
21481;DHT22;10902;48.158;8.634;2024-03-22T12:13:35;24.60;99.90
21481;DHT22;10902;48.158;8.634;2024-03-22T12:16:20;23.90;99.90
21481;DHT22;10902;48.158;8.634;2024-03-22T12:19:06;22.80;99.90
21481;DHT22;10902;48.158;8.634;2024-03-22T12:21:52;22.90;99.90
21481;DHT22;10902;48.158;8.634;2024-03-22T12:24:38;23.50;99.90
21481;DHT22;10902;48.158;8.634;2024-03-22T12:27:23;24.10;99.90
21481;DHT22;10902;48.158;8.634;2024-03-22T12:30:09;24.40;98.70
21481;DHT22;10902;48.158;8.634;2024-03-22T12:32:55;24.70;98.50
21481;DHT22;10902;48.158;8.634;2024-03-22T12:35:41;24.70;98.90
21481;DHT22;10902;48.158;8.634;2024-03-22T12:38:27;25.30;98.30
21481;DHT22;10902;48.158;8.634;2024-03-22T12:41:13;25.50;98.70
21481;DHT22;10902;48.158;8.634;2024-03-22T12:43:59;24.70;98.00
21481;DHT22;10902;48.158;8.634;2024-03-22T12:46:44;23.90;96.70
21481;DHT22;10902;48.158;8.634;2024-03-22T12:49:30;23.10;96.80
21481;DHT22;10902;48.158;8.634;2024-03-22T12:52:16;22.40;97.40
21481;DHT22;10902;48.158;8.634;2024-03-22T12:55:01;23.60;96.20
21481;DHT22;10902;48.158;8.634;2024-03-22T12:57:47;24.70;95.50
21481;DHT22;10902;48.158;8.634;2024-03-22T13:00:32;23.50;95.10
21481;DHT22;10902;48.158;8.634;2024-03-22T13:03:19;24.70;94.70
21481;DHT22;10902;48.158;8.634;2024-03-22T13:06:04;25.30;93.30
21481;DHT22;10902;48.158;8.634;2024-03-22T13:08:50;24.50;91.00
21481;DHT22;10902;48.158;8.634;2024-03-22T13:11:36;24.20;90.50
21481;DHT22;10902;48.158;8.634;2024-03-22T13:14:22;24.50;90.50
21481;DHT22;10902;48.158;8.634;2024-03-22T13:17:08;25.10;90.70
21481;DHT22;10902;48.158;8.634;2024-03-22T13:19:54;23.40;91.30
21481;DHT22;10902;48.158;8.634;2024-03-22T13:22:40;23.00;91.40
21481;DHT22;10902;48.158;8.634;2024-03-22T13:25:25;23.20;91.10
21481;DHT22;10902;48.158;8.634;2024-03-22T13:28:11;24.00;90.60
21481;DHT22;10902;48.158;8.634;2024-03-22T13:31:04;24.60;90.60
21481;DHT22;10902;48.158;8.634;2024-03-22T13:33:51;24.50;89.60
21481;DHT22;10902;48.158;8.634;2024-03-22T13:36:37;25.10;88.00
21481;DHT22;10902;48.158;8.634;2024-03-22T13:39:23;26.20;83.60
21481;DHT22;10902;48.158;8.634;2024-03-22T13:42:08;26.40;84.30
21481;DHT22;10902;48.158;8.634;2024-03-22T13:44:55;27.70;82.50
21481;DHT22;10902;48.158;8.634;2024-03-22T13:47:42;27.50;74.20
21481;DHT22;10902;48.158;8.634;2024-03-22T13:50:27;24.50;77.40
21481;DHT22;10902;48.158;8.634;2024-03-22T13:53:13;23.00;80.80
21481;DHT22;10902;48.158;8.634;2024-03-22T13:56:00;24.30;80.50
21481;DHT22;10902;48.158;8.634;2024-03-22T13:58:46;23.70;82.10
21481;DHT22;10902;48.158;8.634;2024-03-22T14:01:32;24.30;75.80
21481;DHT22;10902;48.158;8.634;2024-03-22T14:04:18;24.90;72.00
21481;DHT22;10902;48.158;8.634;2024-03-22T14:07:05;24.90;71.50
21481;DHT22;10902;48.158;8.634;2024-03-22T14:09:50;25.90;72.50
21481;DHT22;10902;48.158;8.634;2024-03-22T14:12:36;25.40;73.60
21481;DHT22;10902;48.158;8.634;2024-03-22T14:15:21;23.50;76.00
21481;DHT22;10902;48.158;8.634;2024-03-22T14:18:10;24.10;76.00
21481;DHT22;10902;48.158;8.634;2024-03-22T14:20:55;24.30;76.50
21481;DHT22;10902;48.158;8.634;2024-03-22T14:23:41;24.70;75.50
21481;DHT22;10902;48.158;8.634;2024-03-22T14:26:26;24.70;75.00
21481;DHT22;10902;48.158;8.634;2024-03-22T14:29:12;24.80;75.00
21481;DHT22;10902;48.158;8.634;2024-03-22T14:31:58;22.80;76.10
21481;DHT22;10902;48.158;8.634;2024-03-22T14:34:43;22.10;75.40
21481;DHT22;10902;48.158;8.634;2024-03-22T14:37:29;20.60;76.80
21481;DHT22;10902;48.158;8.634;2024-03-22T14:40:15;20.00;80.50
21481;DHT22;10902;48.158;8.634;2024-03-22T14:43:03;19.60;78.60
21481;DHT22;10902;48.158;8.634;2024-03-22T14:45:49;19.20;78.50
21481;DHT22;10902;48.158;8.634;2024-03-22T14:48:34;18.50;76.90
21481;DHT22;10902;48.158;8.634;2024-03-22T14:51:20;18.80;76.80
21481;DHT22;10902;48.158;8.634;2024-03-22T14:54:05;19.20;75.50
21481;DHT22;10902;48.158;8.634;2024-03-22T14:56:51;19.40;76.20
21481;DHT22;10902;48.158;8.634;2024-03-22T14:59:39;19.30;73.20
21481;DHT22;10902;48.158;8.634;2024-03-22T15:02:24;19.10;70.50
21481;DHT22;10902;48.158;8.634;2024-03-22T15:05:10;19.40;70.20
21481;DHT22;10902;48.158;8.634;2024-03-22T15:07:56;19.60;67.70
21481;DHT22;10902;48.158;8.634;2024-03-22T15:10:41;19.90;63.90
21481;DHT22;10902;48.158;8.634;2024-03-22T15:13:27;20.20;65.00
21481;DHT22;10902;48.158;8.634;2024-03-22T15:16:13;21.20;66.20
21481;DHT22;10902;48.158;8.634;2024-03-22T15:18:58;22.50;65.70
21481;DHT22;10902;48.158;8.634;2024-03-22T15:21:44;22.30;63.80
21481;DHT22;10902;48.158;8.634;2024-03-22T15:24:29;21.30;63.70
21481;DHT22;10902;48.158;8.634;2024-03-22T15:27:15;20.90;67.60
21481;DHT22;10902;48.158;8.634;2024-03-22T15:30:01;20.30;67.90
21481;DHT22;10902;48.158;8.634;2024-03-22T15:32:46;20.00;65.40
21481;DHT22;10902;48.158;8.634;2024-03-22T15:35:32;20.10;68.70
21481;DHT22;10902;48.158;8.634;2024-03-22T15:38:17;19.90;69.80
21481;DHT22;10902;48.158;8.634;2024-03-22T15:41:05;19.50;74.80
21481;DHT22;10902;48.158;8.634;2024-03-22T15:43:50;19.60;67.50
21481;DHT22;10902;48.158;8.634;2024-03-22T15:46:36;18.60;69.30
21481;DHT22;10902;48.158;8.634;2024-03-22T15:49:21;18.00;69.70
21481;DHT22;10902;48.158;8.634;2024-03-22T15:52:07;17.70;70.60
21481;DHT22;10902;48.158;8.634;2024-03-22T15:54:53;17.70;69.70
21481;DHT22;10902;48.158;8.634;2024-03-22T15:57:39;17.80;70.20
21481;DHT22;10902;48.158;8.634;2024-03-22T16:00:25;17.90;68.50
21481;DHT22;10902;48.158;8.634;2024-03-22T16:03:11;17.70;70.70
21481;DHT22;10902;48.158;8.634;2024-03-22T16:05:59;17.70;70.70
21481;DHT22;10902;48.158;8.634;2024-03-22T16:08:45;17.70;71.30
21481;DHT22;10902;48.158;8.634;2024-03-22T16:11:31;17.80;71.60
21481;DHT22;10902;48.158;8.634;2024-03-22T16:14:17;17.90;76.20
21481;DHT22;10902;48.158;8.634;2024-03-22T16:17:03;17.80;82.90
21481;DHT22;10902;48.158;8.634;2024-03-22T16:19:48;17.40;86.10
21481;DHT22;10902;48.158;8.634;2024-03-22T16:22:34;17.20;88.10
21481;DHT22;10902;48.158;8.634;2024-03-22T16:25:20;17.10;89.30
21481;DHT22;10902;48.158;8.634;2024-03-22T16:28:06;17.10;90.10
21481;DHT22;10902;48.158;8.634;2024-03-22T16:30:51;17.10;90.60
21481;DHT22;10902;48.158;8.634;2024-03-22T16:33:37;16.90;91.00
21481;DHT22;10902;48.158;8.634;2024-03-22T16:36:22;17.00;90.90
21481;DHT22;10902;48.158;8.634;2024-03-22T16:39:08;17.00;90.70
21481;DHT22;10902;48.158;8.634;2024-03-22T16:41:54;16.80;91.10
21481;DHT22;10902;48.158;8.634;2024-03-22T16:44:39;16.90;91.20
21481;DHT22;10902;48.158;8.634;2024-03-22T16:47:25;17.10;91.20
21481;DHT22;10902;48.158;8.634;2024-03-22T16:50:11;18.20;90.60
21481;DHT22;10902;48.158;8.634;2024-03-22T16:52:57;19.50;88.80
21481;DHT22;10902;48.158;8.634;2024-03-22T16:55:44;20.20;84.70
21481;DHT22;10902;48.158;8.634;2024-03-22T16:58:30;20.90;86.60
21481;DHT22;10902;48.158;8.634;2024-03-22T17:01:15;21.30;85.60
21481;DHT22;10902;48.158;8.634;2024-03-22T17:04:01;22.10;83.90
21481;DHT22;10902;48.158;8.634;2024-03-22T17:06:48;21.80;82.30
21481;DHT22;10902;48.158;8.634;2024-03-22T17:09:33;20.50;84.80
21481;DHT22;10902;48.158;8.634;2024-03-22T17:12:19;20.30;85.50
21481;DHT22;10902;48.158;8.634;2024-03-22T17:15:05;19.60;86.20
21481;DHT22;10902;48.158;8.634;2024-03-22T17:17:50;19.50;86.80
21481;DHT22;10902;48.158;8.634;2024-03-22T17:20:36;19.10;86.30
21481;DHT22;10902;48.158;8.634;2024-03-22T17:23:22;18.80;87.70
21481;DHT22;10902;48.158;8.634;2024-03-22T17:26:07;18.80;87.40
21481;DHT22;10902;48.158;8.634;2024-03-22T17:28:53;18.80;87.90
21481;DHT22;10902;48.158;8.634;2024-03-22T17:31:39;18.30;87.30
21481;DHT22;10902;48.158;8.634;2024-03-22T17:34:25;17.70;89.20
21481;DHT22;10902;48.158;8.634;2024-03-22T17:37:11;16.80;87.00